createdAt,value
2023-02-15T00:01:06.475Z,28
2023-02-15T00:02:13.491Z,27
2023-02-15T00:03:21.147Z,26
2023-02-15T00:04:28.837Z,24
2023-02-15T00:05:41.888Z,22
2023-02-15T00:06:49.724Z,22
2023-02-15T00:07:58.772Z,25
2023-02-15T00:09:05.691Z,25
2023-02-15T00:10:12.504Z,26
2023-02-15T00:11:20.156Z,25
2023-02-15T00:12:32.216Z,26
2023-02-15T00:13:40.128Z,25
2023-02-15T00:14:47.003Z,27
2023-02-15T00:15:53.840Z,27
2023-02-15T00:17:08.718Z,26
2023-02-15T00:18:17.647Z,27
2023-02-15T00:19:24.435Z,27
2023-02-15T00:20:33.051Z,26
2023-02-15T00:21:39.986Z,26
2023-02-15T00:22:46.827Z,29
2023-02-15T00:23:55.823Z,29
2023-02-15T00:25:02.671Z,28
2023-02-15T00:26:09.508Z,29
2023-02-15T00:27:17.255Z,27
2023-02-15T00:28:25.291Z,26
2023-02-15T00:29:33.192Z,27
2023-02-15T00:30:41.326Z,26
2023-02-15T00:31:51.097Z,26
2023-02-15T00:32:58.881Z,27
2023-02-15T00:34:06.782Z,27
2023-02-15T00:35:18.817Z,26
2023-02-15T00:36:29.356Z,27
2023-02-15T00:37:36.326Z,25
2023-02-15T00:38:47.815Z,25
2023-02-15T00:39:54.671Z,25
2023-02-15T00:41:01.581Z,25
2023-02-15T00:42:08.495Z,25
2023-02-15T00:43:15.349Z,24
2023-02-15T00:44:22.163Z,22
2023-02-15T00:45:29.055Z,23
2023-02-15T00:46:36.883Z,24
2023-02-15T00:47:45.855Z,25
2023-02-15T00:48:52.895Z,25
2023-02-15T00:50:00.575Z,24
2023-02-15T00:51:07.799Z,24
2023-02-15T00:52:14.589Z,24
2023-02-15T00:53:21.419Z,25
2023-02-15T00:54:28.247Z,25
2023-02-15T00:55:35.091Z,24
2023-02-15T00:56:41.981Z,26
2023-02-15T00:57:49.802Z,25
2023-02-15T00:58:56.647Z,25
2023-02-15T01:00:07.575Z,27
2023-02-15T01:01:14.722Z,29
2023-02-15T01:02:21.520Z,27
2023-02-15T01:03:28.534Z,26
2023-02-15T01:04:41.101Z,28
2023-02-15T01:05:47.901Z,27
2023-02-15T01:06:57.544Z,25
2023-02-15T01:08:04.565Z,26
2023-02-15T01:09:12.294Z,26
2023-02-15T01:10:19.218Z,25
2023-02-15T01:11:26.093Z,25
2023-02-15T01:12:33.754Z,25
2023-02-15T01:13:40.624Z,26
2023-02-15T01:14:47.670Z,26
2023-02-15T01:15:54.695Z,25
2023-02-15T01:17:01.538Z,27
2023-02-15T01:18:08.421Z,25
2023-02-15T01:19:15.270Z,25
2023-02-15T01:20:22.722Z,24
2023-02-15T01:21:31.084Z,26
2023-02-15T01:22:38.035Z,25
2023-02-15T01:23:46.116Z,25
2023-02-15T01:24:52.959Z,25
2023-02-15T01:26:00.416Z,25
2023-02-15T01:27:07.411Z,26
2023-02-15T01:28:14.828Z,28
2023-02-15T01:29:22.728Z,27
2023-02-15T01:30:29.564Z,26
2023-02-15T01:31:36.588Z,27
2023-02-15T01:32:44.910Z,27
2023-02-15T01:33:51.781Z,25
2023-02-15T01:34:59.000Z,26
2023-02-15T01:36:06.829Z,26
2023-02-15T01:37:13.668Z,26
2023-02-15T01:38:20.609Z,26
2023-02-15T01:39:29.733Z,25
2023-02-15T01:40:37.941Z,25
2023-02-15T01:41:44.840Z,24
2023-02-15T01:42:52.922Z,23
2023-02-15T01:44:01.460Z,24
2023-02-15T01:45:08.323Z,23
2023-02-15T01:46:15.877Z,24
2023-02-15T01:47:22.820Z,25
2023-02-15T01:48:32.635Z,26
2023-02-15T01:49:39.467Z,26
2023-02-15T01:50:49.252Z,25
2023-02-15T01:52:00.242Z,24
2023-02-15T01:53:07.342Z,25
2023-02-15T01:54:18.084Z,25
2023-02-15T01:55:27.952Z,25
2023-02-15T01:56:34.797Z,25
2023-02-15T01:57:42.606Z,25
2023-02-15T01:58:49.585Z,25
2023-02-15T01:59:56.473Z,23
2023-02-15T02:01:03.472Z,22
2023-02-15T02:02:13.685Z,23
2023-02-15T02:03:22.716Z,23
2023-02-15T02:04:36.098Z,23
2023-02-15T02:05:42.899Z,21
2023-02-15T02:06:52.958Z,23
2023-02-15T02:07:59.815Z,22
2023-02-15T02:09:10.919Z,24
2023-02-15T02:10:17.760Z,22
2023-02-15T02:11:24.676Z,23
2023-02-15T02:12:32.516Z,21
2023-02-15T02:13:40.429Z,22
2023-02-15T02:14:50.039Z,20
2023-02-15T02:15:58.044Z,18
2023-02-15T02:17:04.843Z,18
2023-02-15T02:18:16.992Z,18
2023-02-15T02:19:26.791Z,21
2023-02-15T02:20:36.239Z,20
2023-02-15T02:21:49.187Z,19
2023-02-15T02:23:01.179Z,20
2023-02-15T02:24:18.436Z,19
2023-02-15T02:25:30.382Z,19
2023-02-15T02:26:45.462Z,20
2023-02-15T02:28:00.732Z,19
2023-02-15T02:29:12.719Z,20
2023-02-15T02:30:27.675Z,19
2023-02-15T02:31:40.486Z,20
2023-02-15T02:32:47.375Z,20
2023-02-15T02:33:59.371Z,20
2023-02-15T02:35:12.383Z,18
2023-02-15T02:36:23.223Z,19
2023-02-15T02:37:35.403Z,19
2023-02-15T02:38:50.559Z,20
2023-02-15T02:40:01.720Z,19
2023-02-15T02:41:18.944Z,21
2023-02-15T02:42:31.931Z,21
2023-02-15T02:43:43.947Z,20
2023-02-15T02:44:58.724Z,20
2023-02-15T02:46:16.813Z,20
2023-02-15T02:47:31.943Z,19
2023-02-15T02:48:48.067Z,20
2023-02-15T02:49:55.039Z,20
2023-02-15T02:51:02.923Z,19
2023-02-15T02:52:09.859Z,20
2023-02-15T02:53:26.983Z,19
2023-02-15T02:54:35.353Z,21
2023-02-15T02:55:42.268Z,19
2023-02-15T02:56:49.127Z,20
2023-02-15T02:57:56.962Z,20
2023-02-15T02:59:03.889Z,20
2023-02-15T03:00:16.386Z,20
2023-02-15T03:01:26.544Z,18
2023-02-15T03:02:33.277Z,19
2023-02-15T03:03:40.231Z,19
2023-02-15T03:04:47.906Z,19
2023-02-15T03:05:55.823Z,20
2023-02-15T03:07:03.549Z,19
2023-02-15T03:08:10.488Z,20
2023-02-15T03:09:17.496Z,20
2023-02-15T03:10:28.168Z,19
2023-02-15T03:11:36.922Z,20
2023-02-15T03:12:46.154Z,18
2023-02-15T03:13:53.108Z,20
2023-02-15T03:14:59.835Z,19
2023-02-15T03:16:06.632Z,19
2023-02-15T03:17:18.549Z,20
2023-02-15T03:18:25.381Z,20
2023-02-15T03:19:33.446Z,20
2023-02-15T03:20:40.300Z,19
2023-02-15T03:21:49.997Z,19
2023-02-15T03:23:01.985Z,19
2023-02-15T03:24:09.027Z,20
2023-02-15T03:25:20.647Z,21
2023-02-15T03:26:28.804Z,18
2023-02-15T03:27:37.544Z,20
2023-02-15T03:28:47.355Z,20
2023-02-15T03:29:56.170Z,21
2023-02-15T03:31:04.580Z,22
2023-02-15T03:32:12.770Z,22
2023-02-15T03:33:19.577Z,21
2023-02-15T03:34:26.480Z,22
2023-02-15T03:35:33.328Z,22
2023-02-15T03:36:48.095Z,22
2023-02-15T03:37:58.212Z,22
2023-02-15T03:39:08.479Z,21
2023-02-15T03:40:20.894Z,23
2023-02-15T03:41:42.653Z,21
2023-02-15T03:42:52.497Z,22
2023-02-15T03:44:04.572Z,23
2023-02-15T03:45:18.138Z,22
2023-02-15T03:46:27.854Z,22
2023-02-15T03:47:39.164Z,22
2023-02-15T03:48:47.525Z,22
2023-02-15T03:50:00.758Z,23
2023-02-15T03:51:12.788Z,23
2023-02-15T03:52:24.823Z,22
2023-02-15T03:53:32.807Z,22
2023-02-15T03:54:39.727Z,21
2023-02-15T03:55:46.522Z,24
2023-02-15T03:56:53.391Z,23
2023-02-15T03:58:00.328Z,23
2023-02-15T03:59:13.219Z,23
2023-02-15T04:00:25.510Z,24
2023-02-15T04:01:37.392Z,25
2023-02-15T04:02:51.762Z,24
2023-02-15T04:04:10.309Z,25
2023-02-15T04:05:20.736Z,25
2023-02-15T04:06:28.482Z,26
2023-02-15T04:07:35.391Z,26
2023-02-15T04:08:43.854Z,26
2023-02-15T04:09:55.795Z,26
2023-02-15T04:11:08.873Z,25
2023-02-15T04:12:15.674Z,26
2023-02-15T04:13:22.636Z,26
2023-02-15T04:14:34.582Z,25
2023-02-15T04:15:47.538Z,25
2023-02-15T04:16:59.519Z,27
2023-02-15T04:18:07.462Z,25
2023-02-15T04:19:14.294Z,26
2023-02-15T04:20:28.635Z,26
2023-02-15T04:21:44.762Z,26
2023-02-15T04:22:56.731Z,25
2023-02-15T04:24:11.429Z,25
2023-02-15T04:25:23.436Z,26
2023-02-15T04:26:31.399Z,25
2023-02-15T04:27:38.404Z,24
2023-02-15T04:28:45.286Z,25
2023-02-15T04:29:52.247Z,25
2023-02-15T04:31:01.174Z,24
2023-02-15T04:32:10.091Z,25
2023-02-15T04:33:18.701Z,25
2023-02-15T04:34:26.408Z,25
2023-02-15T04:35:33.757Z,24
2023-02-15T04:36:42.819Z,25
2023-02-15T04:37:49.792Z,25
2023-02-15T04:38:59.798Z,25
2023-02-15T04:40:07.646Z,25
2023-02-15T04:41:15.528Z,24
2023-02-15T04:42:22.352Z,25
2023-02-15T04:43:31.291Z,25
2023-02-15T04:44:38.180Z,24
2023-02-15T04:45:49.683Z,26
2023-02-15T04:46:59.474Z,27
2023-02-15T04:48:08.462Z,26
2023-02-15T04:49:16.897Z,25
2023-02-15T04:50:23.927Z,25
2023-02-15T04:51:30.765Z,25
2023-02-15T04:52:38.423Z,25
2023-02-15T04:53:47.835Z,26
2023-02-15T04:54:54.701Z,26
2023-02-15T04:56:02.589Z,24
2023-02-15T04:57:09.168Z,25
2023-02-15T04:58:16.157Z,25
2023-02-15T04:59:23.047Z,26
2023-02-15T05:00:29.943Z,25
2023-02-15T05:01:38.324Z,25
2023-02-15T05:02:46.396Z,25
2023-02-15T05:03:53.311Z,24
2023-02-15T05:05:02.005Z,26
2023-02-15T05:06:09.293Z,23
2023-02-15T05:07:18.414Z,26
2023-02-15T05:08:25.313Z,25
2023-02-15T05:09:34.049Z,25
2023-02-15T05:10:40.960Z,25
2023-02-15T05:11:47.840Z,26
2023-02-15T05:12:54.760Z,28
2023-02-15T05:14:02.321Z,27
2023-02-15T05:15:09.328Z,27
2023-02-15T05:16:19.010Z,26
2023-02-15T05:17:25.805Z,28
2023-02-15T05:18:35.651Z,28
2023-02-15T05:19:42.477Z,30
2023-02-15T05:20:50.185Z,29
2023-02-15T05:21:57.832Z,31
2023-02-15T05:23:07.032Z,30
2023-02-15T05:24:14.618Z,35
2023-02-15T05:25:27.708Z,34
2023-02-15T05:26:40.810Z,34
2023-02-15T05:27:52.794Z,36
2023-02-15T05:29:05.048Z,37
2023-02-15T05:30:12.036Z,34
2023-02-15T05:31:18.986Z,34
2023-02-15T05:32:28.042Z,36
2023-02-15T05:33:35.860Z,37
2023-02-15T05:34:43.618Z,37
2023-02-15T05:35:50.574Z,34
2023-02-15T05:36:58.596Z,34
2023-02-15T05:38:05.461Z,32
2023-02-15T05:39:12.591Z,30
2023-02-15T05:40:19.567Z,31
2023-02-15T05:41:27.186Z,29
2023-02-15T05:42:34.900Z,29
2023-02-15T05:43:41.782Z,28
2023-02-15T05:44:49.495Z,29
2023-02-15T05:45:57.519Z,29
2023-02-15T05:47:07.498Z,29
2023-02-15T05:48:18.024Z,29
2023-02-15T05:49:25.011Z,30
2023-02-15T05:50:32.723Z,30
2023-02-15T05:51:39.544Z,31
2023-02-15T05:52:46.357Z,31
2023-02-15T05:53:55.799Z,30
2023-02-15T05:55:05.108Z,32
2023-02-15T05:56:13.285Z,31
2023-02-15T05:57:23.071Z,32
2023-02-15T05:58:29.903Z,32
2023-02-15T05:59:37.692Z,31
2023-02-15T06:00:44.529Z,31
2023-02-15T06:01:51.414Z,33
2023-02-15T06:03:03.023Z,31
2023-02-15T06:04:15.652Z,32
2023-02-15T06:05:22.505Z,32
2023-02-15T06:06:30.865Z,32
2023-02-15T06:07:37.717Z,31
2023-02-15T06:08:46.924Z,35
2023-02-15T06:09:53.792Z,34
2023-02-15T06:11:01.553Z,35
2023-02-15T06:12:08.597Z,35
2023-02-15T06:13:15.369Z,33
2023-02-15T06:14:23.256Z,36
2023-02-15T06:15:30.234Z,36
2023-02-15T06:16:38.938Z,34
2023-02-15T06:17:45.876Z,37
2023-02-15T06:18:54.171Z,37
2023-02-15T06:20:01.002Z,38
2023-02-15T06:21:08.134Z,36
2023-02-15T06:22:15.091Z,37
2023-02-15T06:23:22.076Z,37
2023-02-15T06:24:28.960Z,36
2023-02-15T06:25:36.897Z,39
2023-02-15T06:26:42.748Z,40
2023-02-15T06:27:50.485Z,39
2023-02-15T06:28:57.475Z,37
2023-02-15T06:30:07.717Z,40
2023-02-15T06:31:16.278Z,39
2023-02-15T06:32:24.543Z,40
2023-02-15T06:33:31.403Z,43
2023-02-15T06:34:39.619Z,44
2023-02-15T06:35:46.524Z,42
2023-02-15T06:36:53.312Z,43
2023-02-15T06:38:00.212Z,42
2023-02-15T06:39:07.305Z,43
2023-02-15T06:40:17.166Z,45
2023-02-15T06:41:24.111Z,40
2023-02-15T06:42:31.063Z,42
2023-02-15T06:43:40.679Z,44
2023-02-15T06:44:46.715Z,44
2023-02-15T06:45:53.723Z,45
2023-02-15T06:47:00.655Z,43
2023-02-15T06:48:10.919Z,46
2023-02-15T06:49:18.723Z,50
2023-02-15T06:50:25.739Z,48
2023-02-15T06:51:35.680Z,50
2023-02-15T06:52:43.087Z,54
2023-02-15T06:53:50.133Z,49
2023-02-15T06:54:59.950Z,51
2023-02-15T06:56:07.654Z,54
2023-02-15T06:57:14.675Z,53
2023-02-15T06:58:24.787Z,52
2023-02-15T06:59:31.918Z,53
2023-02-15T07:00:39.255Z,51
2023-02-15T07:01:48.797Z,53
2023-02-15T07:02:56.433Z,53
2023-02-15T07:04:04.581Z,49
2023-02-15T07:05:11.828Z,53
2023-02-15T07:06:24.073Z,51
2023-02-15T07:07:33.569Z,49
2023-02-15T07:08:44.686Z,47
2023-02-15T07:09:52.683Z,45
2023-02-15T07:10:59.682Z,44
2023-02-15T07:12:12.716Z,41
2023-02-15T07:13:28.062Z,42
2023-02-15T07:14:34.987Z,42
2023-02-15T07:15:42.475Z,40
2023-02-15T07:16:49.415Z,40
2023-02-15T07:17:56.406Z,41
2023-02-15T07:19:04.535Z,40
2023-02-15T07:20:12.310Z,39
2023-02-15T07:21:19.290Z,41
2023-02-15T07:22:26.235Z,41
2023-02-15T07:23:36.148Z,38
2023-02-15T07:24:43.389Z,40
2023-02-15T07:25:50.484Z,39
2023-02-15T07:27:05.476Z,37
2023-02-15T07:28:13.427Z,41
2023-02-15T07:29:21.428Z,38
2023-02-15T07:30:28.612Z,41
2023-02-15T07:31:38.333Z,40
2023-02-15T07:32:46.451Z,39
2023-02-15T07:34:02.559Z,41
2023-02-15T07:35:09.520Z,40
2023-02-15T07:36:16.806Z,41
2023-02-15T07:37:33.195Z,37
2023-02-15T07:38:43.123Z,39
2023-02-15T07:39:53.081Z,41
2023-02-15T07:41:00.579Z,40
2023-02-15T07:42:07.527Z,39
2023-02-15T07:43:14.591Z,39
2023-02-15T07:44:34.163Z,38
2023-02-15T07:45:42.679Z,37
2023-02-15T07:46:49.657Z,39
2023-02-15T07:47:59.452Z,39
2023-02-15T07:49:08.684Z,37
2023-02-15T07:50:16.854Z,43
2023-02-15T07:51:24.012Z,43
2023-02-15T07:52:31.127Z,43
2023-02-15T07:53:40.810Z,42
2023-02-15T07:54:47.897Z,42
2023-02-15T07:55:55.160Z,43
2023-02-15T07:57:06.165Z,40
2023-02-15T07:58:14.387Z,42
2023-02-15T07:59:21.564Z,43
2023-02-15T08:00:31.499Z,41
2023-02-15T08:01:40.963Z,39
2023-02-15T08:02:50.580Z,37
2023-02-15T08:03:58.559Z,40
2023-02-15T08:05:08.403Z,36
2023-02-15T08:06:15.463Z,31
2023-02-15T08:07:22.516Z,32
2023-02-15T08:08:32.512Z,30
2023-02-15T08:09:42.962Z,29
2023-02-15T08:10:50.207Z,27
2023-02-15T08:12:10.351Z,26
2023-02-15T08:13:19.968Z,27
2023-02-15T08:14:27.642Z,28
2023-02-15T08:15:38.219Z,28
2023-02-15T08:16:48.163Z,29
2023-02-15T08:18:05.783Z,29
2023-02-15T08:19:13.279Z,30
2023-02-15T08:20:20.229Z,30
2023-02-15T08:21:27.223Z,30
2023-02-15T08:22:37.398Z,31
2023-02-15T08:23:45.356Z,31
2023-02-15T08:24:52.647Z,29
2023-02-15T08:26:00.966Z,31
2023-02-15T08:27:08.682Z,30
2023-02-15T08:28:16.401Z,30
2023-02-15T08:29:26.313Z,29
2023-02-15T08:30:40.798Z,28
2023-02-15T08:31:47.999Z,30
2023-02-15T08:33:00.831Z,28
2023-02-15T08:34:10.935Z,27
2023-02-15T08:35:18.248Z,29
2023-02-15T08:36:29.330Z,33
2023-02-15T08:37:36.394Z,32
2023-02-15T08:38:43.336Z,32
2023-02-15T08:39:50.332Z,31
2023-02-15T08:40:57.604Z,29
2023-02-15T08:42:15.582Z,30
2023-02-15T08:43:22.564Z,30
2023-02-15T08:44:29.740Z,30
2023-02-15T08:45:36.915Z,30
2023-02-15T08:46:43.812Z,29
2023-02-15T08:47:50.914Z,28
2023-02-15T08:48:59.029Z,29
2023-02-15T08:50:06.062Z,29
2023-02-15T08:51:16.245Z,30
2023-02-15T08:52:23.346Z,26
2023-02-15T08:53:31.506Z,25
2023-02-15T08:54:41.127Z,27
2023-02-15T08:55:50.848Z,27
2023-02-15T08:57:01.295Z,28
2023-02-15T08:58:08.538Z,30
2023-02-15T08:59:16.621Z,31
2023-02-15T09:00:25.950Z,31
2023-02-15T09:01:34.991Z,32
2023-02-15T09:02:42.309Z,34
2023-02-15T09:03:53.137Z,31
2023-02-15T09:05:04.308Z,30
2023-02-15T09:06:15.762Z,31
2023-02-15T09:07:36.741Z,27
2023-02-15T09:08:47.498Z,30
2023-02-15T09:09:54.449Z,33
2023-02-15T09:11:06.865Z,32
2023-02-15T09:12:15.226Z,31
2023-02-15T09:13:26.702Z,33
2023-02-15T09:14:33.886Z,33
2023-02-15T09:15:40.962Z,33
2023-02-15T09:16:49.802Z,34
2023-02-15T09:17:59.505Z,34
2023-02-15T09:19:06.600Z,31
2023-02-15T09:20:13.568Z,33
2023-02-15T09:21:21.293Z,34
2023-02-15T09:22:28.241Z,34
2023-02-15T09:23:35.174Z,33
2023-02-15T09:24:42.339Z,34
2023-02-15T09:25:49.651Z,34
2023-02-15T09:26:57.565Z,32
2023-02-15T09:28:06.292Z,33
2023-02-15T09:29:13.380Z,28
2023-02-15T09:30:20.833Z,30
2023-02-15T09:31:27.756Z,30
2023-02-15T09:32:37.874Z,27
2023-02-15T09:33:45.875Z,28
2023-02-15T09:34:53.910Z,31
2023-02-15T09:36:01.777Z,31
2023-02-15T09:37:09.806Z,28
2023-02-15T09:38:16.669Z,30
2023-02-15T09:39:23.696Z,28
2023-02-15T09:40:30.923Z,30
2023-02-15T09:41:38.488Z,31
2023-02-15T09:42:51.332Z,29
2023-02-15T09:43:59.160Z,33
2023-02-15T09:45:13.799Z,28
2023-02-15T09:46:21.777Z,31
2023-02-15T09:47:33.649Z,32
2023-02-15T09:48:48.660Z,31
2023-02-15T09:49:55.627Z,31
2023-02-15T09:51:12.796Z,32
2023-02-15T09:52:30.828Z,34
2023-02-15T09:53:45.380Z,29
2023-02-15T09:55:00.464Z,30
2023-02-15T09:56:15.144Z,32
2023-02-15T09:57:27.197Z,32
2023-02-15T09:58:38.214Z,34
2023-02-15T09:59:58.190Z,35
2023-02-15T10:01:10.490Z,35
2023-02-15T10:02:30.234Z,33
2023-02-15T10:03:47.137Z,34
2023-02-15T10:05:05.479Z,35
2023-02-15T10:06:18.018Z,34
2023-02-15T10:07:32.804Z,35
2023-02-15T10:08:49.829Z,32
2023-02-15T10:10:03.238Z,30
2023-02-15T10:11:15.491Z,31
2023-02-15T10:12:32.571Z,29
2023-02-15T10:13:48.257Z,30
2023-02-15T10:15:02.780Z,30
2023-02-15T10:16:22.808Z,28
2023-02-15T10:17:34.920Z,29
2023-02-15T10:18:50.324Z,28
2023-02-15T10:20:00.403Z,29
2023-02-15T10:21:12.324Z,28
2023-02-15T10:22:30.207Z,28
2023-02-15T10:23:47.456Z,28
2023-02-15T10:25:05.456Z,29
2023-02-15T10:26:22.876Z,28
2023-02-15T10:27:34.810Z,28
2023-02-15T10:28:41.802Z,29
2023-02-15T10:29:59.258Z,28
2023-02-15T10:31:06.581Z,28
2023-02-15T10:32:13.682Z,28
2023-02-15T10:33:26.343Z,29
2023-02-15T10:34:43.419Z,30
2023-02-15T10:35:58.531Z,29
2023-02-15T10:37:13.432Z,30
2023-02-15T10:38:25.412Z,30
2023-02-15T10:39:40.698Z,30
2023-02-15T10:40:52.823Z,28
2023-02-15T10:42:11.546Z,30
2023-02-15T10:43:27.135Z,29
2023-02-15T10:44:44.321Z,28
2023-02-15T10:45:56.420Z,28
2023-02-15T10:47:09.670Z,27
2023-02-15T10:48:26.533Z,26
2023-02-15T10:49:38.586Z,28
2023-02-15T10:50:46.769Z,28
2023-02-15T10:51:53.937Z,28
2023-02-15T10:53:03.522Z,27
2023-02-15T10:54:18.655Z,27
2023-02-15T10:55:34.488Z,27
2023-02-15T10:56:51.814Z,26
2023-02-15T10:58:03.906Z,25
2023-02-15T10:59:17.002Z,24
2023-02-15T11:00:35.030Z,24
2023-02-15T11:01:50.448Z,23
2023-02-15T11:03:00.128Z,24
2023-02-15T11:04:12.606Z,24
2023-02-15T11:05:33.578Z,24
2023-02-15T11:06:46.011Z,26
2023-02-15T11:08:01.530Z,24
2023-02-15T11:09:09.706Z,24
2023-02-15T11:10:21.880Z,24
2023-02-15T11:11:33.804Z,23
2023-02-15T11:12:43.667Z,22
2023-02-15T11:13:52.626Z,23
2023-02-15T11:15:03.246Z,23
2023-02-15T11:16:17.036Z,23
2023-02-15T11:17:27.227Z,21
2023-02-15T11:18:39.222Z,20
2023-02-15T11:19:54.520Z,20
2023-02-15T11:21:10.880Z,21
2023-02-15T11:22:18.105Z,22
2023-02-15T11:23:24.684Z,21
2023-02-15T11:24:31.691Z,22
2023-02-15T11:25:38.611Z,24
2023-02-15T11:26:45.601Z,21
2023-02-15T11:28:01.520Z,22
2023-02-15T11:29:08.791Z,22
2023-02-15T11:30:26.020Z,21
2023-02-15T11:31:33.300Z,21
2023-02-15T11:32:45.102Z,23
2023-02-15T11:33:53.586Z,22
2023-02-15T11:35:07.740Z,22
2023-02-15T11:36:15.654Z,22
2023-02-15T11:37:24.534Z,21
2023-02-15T11:38:32.210Z,20
2023-02-15T11:39:39.896Z,21
2023-02-15T11:40:50.835Z,21
2023-02-15T11:41:57.904Z,22
2023-02-15T11:43:05.153Z,21
2023-02-15T11:44:15.190Z,21
2023-02-15T11:45:24.730Z,21
2023-02-15T11:46:34.201Z,20
2023-02-15T11:47:41.588Z,21
2023-02-15T11:48:49.427Z,21
2023-02-15T11:49:59.102Z,22
2023-02-15T11:51:06.483Z,21
2023-02-15T11:52:14.015Z,20
2023-02-15T11:53:21.919Z,21
2023-02-15T11:54:28.842Z,21
2023-02-15T11:55:37.396Z,21
2023-02-15T11:56:45.964Z,21
2023-02-15T11:57:52.923Z,20
2023-02-15T11:59:10.131Z,19
2023-02-15T12:00:19.188Z,20
2023-02-15T12:01:32.264Z,21
2023-02-15T12:02:39.811Z,20
2023-02-15T12:03:47.576Z,21
2023-02-15T12:04:56.983Z,21
2023-02-15T12:06:04.677Z,20
2023-02-15T12:07:11.676Z,20
2023-02-15T12:08:21.709Z,18
2023-02-15T12:09:29.483Z,18
2023-02-15T12:10:40.075Z,18
2023-02-15T12:11:49.730Z,19
2023-02-15T12:12:58.024Z,20
2023-02-15T12:14:15.215Z,22
2023-02-15T12:15:25.160Z,21
2023-02-15T12:16:32.891Z,21
2023-02-15T12:17:47.887Z,21
2023-02-15T12:18:58.274Z,21
2023-02-15T12:20:05.385Z,22
2023-02-15T12:21:17.313Z,21
2023-02-15T12:22:32.500Z,22
2023-02-15T12:23:40.373Z,22
2023-02-15T12:24:49.271Z,22
2023-02-15T12:25:57.137Z,20
2023-02-15T12:27:04.177Z,22
2023-02-15T12:28:19.121Z,21
2023-02-15T12:29:32.126Z,21
2023-02-15T12:30:44.123Z,20
2023-02-15T12:31:54.448Z,21
2023-02-15T12:33:03.811Z,21
2023-02-15T12:34:19.532Z,21
2023-02-15T12:35:27.096Z,22
2023-02-15T12:36:36.626Z,23
2023-02-15T12:37:47.092Z,22
2023-02-15T12:39:02.226Z,21
2023-02-15T12:40:17.027Z,22
2023-02-15T12:41:24.320Z,22
2023-02-15T12:42:32.480Z,22
2023-02-15T12:43:44.699Z,24
2023-02-15T12:44:52.281Z,22
2023-02-15T12:46:02.741Z,24
2023-02-15T12:47:17.384Z,24
2023-02-15T12:48:24.695Z,22
2023-02-15T12:49:35.734Z,21
2023-02-15T12:50:42.651Z,22
2023-02-15T12:51:50.017Z,23
2023-02-15T12:52:57.264Z,23
2023-02-15T12:54:12.191Z,25
2023-02-15T12:55:29.279Z,25
2023-02-15T12:56:37.090Z,24
2023-02-15T12:57:44.468Z,24
2023-02-15T12:58:52.482Z,25
2023-02-15T12:59:59.480Z,26
2023-02-15T13:01:06.541Z,25
2023-02-15T13:02:14.403Z,26
2023-02-15T13:03:33.200Z,25
2023-02-15T13:04:42.061Z,28
2023-02-15T13:05:48.913Z,27
2023-02-15T13:06:58.038Z,26
2023-02-15T13:08:07.270Z,25
2023-02-15T13:09:22.179Z,26
2023-02-15T13:10:35.170Z,25
2023-02-15T13:11:50.972Z,27
2023-02-15T13:13:01.419Z,26
2023-02-15T13:14:08.754Z,27
2023-02-15T13:15:30.101Z,26
2023-02-15T13:16:37.034Z,28
2023-02-15T13:17:46.328Z,28
2023-02-15T13:18:54.220Z,28
2023-02-15T13:20:01.219Z,27
2023-02-15T13:21:10.770Z,27
2023-02-15T13:22:20.867Z,26
2023-02-15T13:23:34.773Z,27
2023-02-15T13:24:41.239Z,28
2023-02-15T13:25:48.237Z,29
2023-02-15T13:29:36.365Z,29
2023-02-15T13:30:43.127Z,26
2023-02-15T13:31:50.434Z,27
2023-02-15T13:33:00.975Z,24
2023-02-15T13:34:11.023Z,25
2023-02-15T13:35:21.204Z,26
2023-02-15T13:36:28.337Z,25
2023-02-15T13:37:38.735Z,27
2023-02-15T13:38:57.891Z,27
2023-02-15T13:40:10.413Z,27
2023-02-15T13:41:17.667Z,25
2023-02-15T13:42:29.865Z,25
2023-02-15T13:43:37.111Z,26
2023-02-15T13:44:49.392Z,26
2023-02-15T13:45:56.897Z,25
2023-02-15T13:47:12.444Z,26
2023-02-15T13:48:44.965Z,25
2023-02-15T13:49:45.680Z,26
2023-02-15T13:50:57.973Z,25
2023-02-15T13:52:13.091Z,25
2023-02-15T13:53:28.158Z,24
2023-02-15T13:54:39.656Z,25
2023-02-15T13:55:50.767Z,25
2023-02-15T13:56:57.898Z,27
2023-02-15T13:58:11.849Z,26
2023-02-15T13:59:25.643Z,27
2023-02-15T14:00:40.524Z,25
2023-02-15T14:01:52.702Z,25
2023-02-15T14:03:02.916Z,26
2023-02-15T14:04:15.194Z,28
2023-02-15T14:05:31.188Z,27
2023-02-15T14:06:43.360Z,28
2023-02-15T14:08:00.722Z,27
2023-02-15T14:09:16.003Z,28
2023-02-15T14:10:28.322Z,28
2023-02-15T14:11:40.561Z,27
2023-02-15T14:12:52.710Z,28
2023-02-15T14:14:09.943Z,27
2023-02-15T14:15:26.941Z,28
2023-02-15T14:16:42.284Z,28
2023-02-15T14:17:55.120Z,29
2023-02-15T14:19:07.415Z,27
2023-02-15T14:20:17.522Z,26
2023-02-15T14:21:30.749Z,26
2023-02-15T14:22:43.485Z,26
2023-02-15T14:23:56.712Z,27
2023-02-15T14:25:09.792Z,27
2023-02-15T14:26:19.590Z,27
2023-02-15T14:27:37.855Z,27
2023-02-15T14:28:47.945Z,27
2023-02-15T14:30:00.112Z,26
2023-02-15T14:31:07.997Z,28
2023-02-15T14:32:16.099Z,28
2023-02-15T14:33:28.692Z,28
2023-02-15T14:34:38.046Z,29
2023-02-15T14:35:56.066Z,28
2023-02-15T14:37:06.727Z,28
2023-02-15T14:38:14.633Z,28
2023-02-15T14:39:31.230Z,26
2023-02-15T14:40:46.404Z,27
2023-02-15T14:42:06.483Z,28
2023-02-15T14:43:16.977Z,26
2023-02-15T14:44:25.220Z,28
2023-02-15T14:45:40.384Z,27
2023-02-15T14:46:55.609Z,27
2023-02-15T14:48:02.864Z,27
2023-02-15T14:49:24.292Z,27
2023-02-15T14:50:38.075Z,26
2023-02-15T14:51:47.933Z,25
2023-02-15T14:52:55.978Z,26
2023-02-15T14:54:13.316Z,26
2023-02-15T14:55:21.520Z,25
2023-02-15T14:56:41.747Z,26
2023-02-15T14:57:49.488Z,25
2023-02-15T14:58:59.538Z,22
2023-02-15T15:00:16.750Z,24
2023-02-15T15:01:34.354Z,25
2023-02-15T15:02:48.412Z,26
2023-02-15T15:03:57.991Z,24
2023-02-15T15:05:10.944Z,26
2023-02-15T15:06:23.207Z,24
2023-02-15T15:07:31.042Z,25
2023-02-15T15:08:46.093Z,24
2023-02-15T15:09:53.340Z,25
2023-02-15T15:11:04.560Z,28
2023-02-15T15:12:22.601Z,24
2023-02-15T15:13:32.231Z,25
2023-02-15T15:14:39.458Z,29
2023-02-15T15:15:49.408Z,28
2023-02-15T15:16:56.459Z,25
2023-02-15T15:18:03.710Z,26
2023-02-15T15:19:11.096Z,27
2023-02-15T15:20:19.726Z,25
2023-02-15T15:21:30.830Z,25
2023-02-15T15:22:48.800Z,24
2023-02-15T15:23:56.253Z,25
2023-02-15T15:25:03.591Z,25
2023-02-15T15:26:18.358Z,26
2023-02-15T15:27:33.826Z,25
2023-02-15T15:28:41.457Z,25
2023-02-15T15:29:49.676Z,26
2023-02-15T15:30:57.038Z,26
2023-02-15T15:32:09.296Z,27
2023-02-15T15:33:17.125Z,27
2023-02-15T15:34:27.104Z,27
2023-02-15T15:35:39.492Z,28
2023-02-15T15:36:59.434Z,29
2023-02-15T15:38:16.954Z,28
2023-02-15T15:39:36.921Z,28
2023-02-15T15:40:52.844Z,28
2023-02-15T15:42:10.762Z,28
2023-02-15T15:43:23.486Z,28
2023-02-15T15:44:38.322Z,30
2023-02-15T15:45:55.852Z,29
2023-02-15T15:47:10.897Z,29
2023-02-15T15:48:28.163Z,26
2023-02-15T15:49:39.104Z,26
2023-02-15T15:50:49.369Z,27
2023-02-15T15:51:58.921Z,27
2023-02-15T15:53:06.191Z,27
2023-02-15T15:54:16.451Z,26
2023-02-15T15:55:27.078Z,25
2023-02-15T15:56:34.332Z,26
2023-02-15T15:57:44.035Z,26
2023-02-15T15:58:54.265Z,26
2023-02-15T16:00:05.783Z,23
2023-02-15T16:01:24.212Z,25
2023-02-15T16:02:35.341Z,23
2023-02-15T16:03:43.829Z,23
2023-02-15T16:04:57.124Z,22
2023-02-15T16:06:12.498Z,24
2023-02-15T16:07:24.087Z,23
2023-02-15T16:08:35.870Z,24
2023-02-15T16:09:47.032Z,26
2023-02-15T16:11:03.576Z,25
2023-02-15T16:12:20.470Z,26
2023-02-15T16:13:27.959Z,27
2023-02-15T16:14:38.162Z,26
2023-02-15T16:15:47.507Z,27
2023-02-15T16:16:54.881Z,25
2023-02-15T16:18:02.381Z,26
2023-02-15T16:19:10.583Z,26
2023-02-15T16:20:21.786Z,28
2023-02-15T16:21:34.298Z,27
2023-02-15T16:22:44.897Z,27
2023-02-15T16:23:52.090Z,28
2023-02-15T16:25:02.480Z,25
2023-02-15T16:26:20.408Z,28
2023-02-15T16:27:30.636Z,28
2023-02-15T16:28:37.881Z,25
2023-02-15T16:29:45.143Z,27
2023-02-15T16:30:52.473Z,27
2023-02-15T16:32:10.821Z,27
2023-02-15T16:33:27.069Z,27
2023-02-15T16:34:39.431Z,28
2023-02-15T16:35:56.833Z,27
2023-02-15T16:37:06.277Z,26
2023-02-15T16:38:21.067Z,28
2023-02-15T16:39:41.579Z,27
2023-02-15T16:40:50.793Z,28
2023-02-15T16:41:58.797Z,28